Mangohick, Virginia
Current Conditions -  °F | °C
As of 2:54 PM on Friday 19 Dec 2014 (Local Time) from KOFP Reporting Station
Clear Clear  
Wind Chill: 39°   Ceiling: Unl
Heat Index: 44°   Visibility: 10mi
Dew Point: 24°   Wind: 9mph
Humidity: 45%   Direction: 280°W
Pressure: 30.16"   Gusts: NA
Location:  37.7857°N, 77.3107°W
Report Text: KOFP 191954Z AUTO 28008KT 10SM CLR 07/M04 A3016 RMK AO2 SLP214 T00671044
Loading
Personal Weather Stations






























Interactive Weather Map New forecast layout! Learn more

10-Day Weather Forecast

Advertisements
Track Severe Weather on mobile